sensor_id;sensor_type;location;lat;lon;timestamp;P1;P2;P0
45871;PMS5003;32333;55.844;-3.210;2023-02-14T00:01:42;1;1;
45871;PMS5003;32333;55.844;-3.210;2023-02-14T00:04:12;0;0;
45871;PMS5003;32333;55.844;-3.210;2023-02-14T00:06:41;6;6;
45871;PMS5003;32333;55.844;-3.210;2023-02-14T00:09:10;1;1;
45871;PMS5003;32333;55.844;-3.210;2023-02-14T00:11:39;0;0;
45871;PMS5003;32333;55.844;-3.210;2023-02-14T00:14:35;1;1;
45871;PMS5003;32333;55.844;-3.210;2023-02-14T00:17:03;19;19;
45871;PMS5003;32333;55.844;-3.210;2023-02-14T00:19:31;13;13;
45871;PMS5003;32333;55.844;-3.210;2023-02-14T00:21:58;16;16;
45871;PMS5003;32333;55.844;-3.210;2023-02-14T00:24:27;1;1;
45871;PMS5003;32333;55.844;-3.210;2023-02-14T00:26:55;0;0;
45871;PMS5003;32333;55.844;-3.210;2023-02-14T00:29:24;0;0;
45871;PMS5003;32333;55.844;-3.210;2023-02-14T00:31:53;0;0;
45871;PMS5003;32333;55.844;-3.210;2023-02-14T00:34:22;4;3;
45871;PMS5003;32333;55.844;-3.210;2023-02-14T00:36:50;0;0;
45871;PMS5003;32333;55.844;-3.210;2023-02-14T00:39:18;0;0;
45871;PMS5003;32333;55.844;-3.210;2023-02-14T00:41:45;0;0;
45871;PMS5003;32333;55.844;-3.210;2023-02-14T00:44:35;0;0;
45871;PMS5003;32333;55.844;-3.210;2023-02-14T00:47:04;1;1;
45871;PMS5003;32333;55.844;-3.210;2023-02-14T00:49:31;0;0;
45871;PMS5003;32333;55.844;-3.210;2023-02-14T00:51:59;3;3;
45871;PMS5003;32333;55.844;-3.210;2023-02-14T00:54:27;0;0;
45871;PMS5003;32333;55.844;-3.210;2023-02-14T00:56:54;0;0;
45871;PMS5003;32333;55.844;-3.210;2023-02-14T00:59:22;1;1;
45871;PMS5003;32333;55.844;-3.210;2023-02-14T01:01:50;0;0;
45871;PMS5003;32333;55.844;-3.210;2023-02-14T01:04:19;0;0;
45871;PMS5003;32333;55.844;-3.210;2023-02-14T01:06:47;0;0;
45871;PMS5003;32333;55.844;-3.210;2023-02-14T01:09:14;7;7;
45871;PMS5003;32333;55.844;-3.210;2023-02-14T01:11:42;1;1;
45871;PMS5003;32333;55.844;-3.210;2023-02-14T01:14:34;0;0;
45871;PMS5003;32333;55.844;-3.210;2023-02-14T01:17:02;3;3;
45871;PMS5003;32333;55.844;-3.210;2023-02-14T01:19:30;0;0;
45871;PMS5003;32333;55.844;-3.210;2023-02-14T01:21:58;0;0;
45871;PMS5003;32333;55.844;-3.210;2023-02-14T01:24:26;4;4;
45871;PMS5003;32333;55.844;-3.210;2023-02-14T01:27:23;6;6;
45871;PMS5003;32333;55.844;-3.210;2023-02-14T01:29:52;0;0;
45871;PMS5003;32333;55.844;-3.210;2023-02-14T01:32:19;0;0;
45871;PMS5003;32333;55.844;-3.210;2023-02-14T01:34:47;0;0;
45871;PMS5003;32333;55.844;-3.210;2023-02-14T01:37:16;0;0;
45871;PMS5003;32333;55.844;-3.210;2023-02-14T01:39:43;0;0;
45871;PMS5003;32333;55.844;-3.210;2023-02-14T01:45:12;4;4;
45871;PMS5003;32333;55.844;-3.210;2023-02-14T01:47:43;0;0;
45871;PMS5003;32333;55.844;-3.210;2023-02-14T01:50:16;1;1;
45871;PMS5003;32333;55.844;-3.210;2023-02-14T01:52:48;0;0;
45871;PMS5003;32333;55.844;-3.210;2023-02-14T01:55:20;0;0;
45871;PMS5003;32333;55.844;-3.210;2023-02-14T01:57:52;1;0;
45871;PMS5003;32333;55.844;-3.210;2023-02-14T02:00:25;0;0;
45871;PMS5003;32333;55.844;-3.210;2023-02-14T02:02:53;1;1;
45871;PMS5003;32333;55.844;-3.210;2023-02-14T02:05:22;0;0;
45871;PMS5003;32333;55.844;-3.210;2023-02-14T02:07:51;0;0;
45871;PMS5003;32333;55.844;-3.210;2023-02-14T02:10:21;0;0;
45871;PMS5003;32333;55.844;-3.210;2023-02-14T02:14:35;0;0;
45871;PMS5003;32333;55.844;-3.210;2023-02-14T02:17:08;0;0;
45871;PMS5003;32333;55.844;-3.210;2023-02-14T02:20:23;0;0;
45871;PMS5003;32333;55.844;-3.210;2023-02-14T02:20:32;0;0;
45871;PMS5003;32333;55.844;-3.210;2023-02-14T02:23:21;0;0;
45871;PMS5003;32333;55.844;-3.210;2023-02-14T02:24:04;0;0;
45871;PMS5003;32333;55.844;-3.210;2023-02-14T02:26:49;0;0;
45871;PMS5003;32333;55.844;-3.210;2023-02-14T02:30:27;0;0;
45871;PMS5003;32333;55.844;-3.210;2023-02-14T02:33:26;0;0;
45871;PMS5003;32333;55.844;-3.210;2023-02-14T02:36:27;0;0;
45871;PMS5003;32333;55.844;-3.210;2023-02-14T02:39:10;0;0;
45871;PMS5003;32333;55.844;-3.210;2023-02-14T02:41:51;0;0;
45871;PMS5003;32333;55.844;-3.210;2023-02-14T02:44:39;24;24;
45871;PMS5003;32333;55.844;-3.210;2023-02-14T02:47:15;16;16;
45871;PMS5003;32333;55.844;-3.210;2023-02-14T02:49:53;25;25;
45871;PMS5003;32333;55.844;-3.210;2023-02-14T02:52:30;33;33;
45871;PMS5003;32333;55.844;-3.210;2023-02-14T02:58:31;27;27;
45871;PMS5003;32333;55.844;-3.210;2023-02-14T03:01:02;30;30;
45871;PMS5003;32333;55.844;-3.210;2023-02-14T03:03:35;87;87;
45871;PMS5003;32333;55.844;-3.210;2023-02-14T03:06:06;97;97;
45871;PMS5003;32333;55.844;-3.210;2023-02-14T03:08:33;61;61;
45871;PMS5003;32333;55.844;-3.210;2023-02-14T03:11:02;13;13;
45871;PMS5003;32333;55.844;-3.210;2023-02-14T03:14:36;9;9;
45871;PMS5003;32333;55.844;-3.210;2023-02-14T03:17:12;10;10;
45871;PMS5003;32333;55.844;-3.210;2023-02-14T03:19:50;24;24;
45871;PMS5003;32333;55.844;-3.210;2023-02-14T03:22:33;49;49;
45871;PMS5003;32333;55.844;-3.210;2023-02-14T03:25:17;18;18;
45871;PMS5003;32333;55.844;-3.210;2023-02-14T03:27:57;31;31;
45871;PMS5003;32333;55.844;-3.210;2023-02-14T03:30:31;16;16;
45871;PMS5003;32333;55.844;-3.210;2023-02-14T03:33:04;15;15;
45871;PMS5003;32333;55.844;-3.210;2023-02-14T03:35:39;3;3;
45871;PMS5003;32333;55.844;-3.210;2023-02-14T03:38:14;9;9;
45871;PMS5003;32333;55.844;-3.210;2023-02-14T03:40:48;4;4;
45871;PMS5003;32333;55.844;-3.210;2023-02-14T03:44:36;9;9;
45871;PMS5003;32333;55.844;-3.210;2023-02-14T03:47:06;3;3;
45871;PMS5003;32333;55.844;-3.210;2023-02-14T03:49:39;6;6;
45871;PMS5003;32333;55.844;-3.210;2023-02-14T03:52:11;9;9;
45871;PMS5003;32333;55.844;-3.210;2023-02-14T03:54:39;7;7;
45871;PMS5003;32333;55.844;-3.210;2023-02-14T03:57:11;7;7;
45871;PMS5003;32333;55.844;-3.210;2023-02-14T03:59:43;13;13;
45871;PMS5003;32333;55.844;-3.210;2023-02-14T04:02:12;16;16;
45871;PMS5003;32333;55.844;-3.210;2023-02-14T04:04:46;12;12;
45871;PMS5003;32333;55.844;-3.210;2023-02-14T04:07:16;13;13;
45871;PMS5003;32333;55.844;-3.210;2023-02-14T04:09:49;27;27;
45871;PMS5003;32333;55.844;-3.210;2023-02-14T04:14:35;28;28;
45871;PMS5003;32333;55.844;-3.210;2023-02-14T04:17:03;43;43;
45871;PMS5003;32333;55.844;-3.210;2023-02-14T04:19:32;36;36;
45871;PMS5003;32333;55.844;-3.210;2023-02-14T04:21:59;6;6;
45871;PMS5003;32333;55.844;-3.210;2023-02-14T04:24:27;45;45;
45871;PMS5003;32333;55.844;-3.210;2023-02-14T04:26:55;205;205;
45871;PMS5003;32333;55.844;-3.210;2023-02-14T04:29:24;217;217;
45871;PMS5003;32333;55.844;-3.210;2023-02-14T04:31:52;33;33;
45871;PMS5003;32333;55.844;-3.210;2023-02-14T04:34:20;45;45;
45871;PMS5003;32333;55.844;-3.210;2023-02-14T04:36:47;34;34;
45871;PMS5003;32333;55.844;-3.210;2023-02-14T04:39:14;10;10;
45871;PMS5003;32333;55.844;-3.210;2023-02-14T04:41:43;12;12;
45871;PMS5003;32333;55.844;-3.210;2023-02-14T04:44:34;0;0;
45871;PMS5003;32333;55.844;-3.210;2023-02-14T04:47:03;6;6;
45871;PMS5003;32333;55.844;-3.210;2023-02-14T04:49:31;12;12;
45871;PMS5003;32333;55.844;-3.210;2023-02-14T04:52:00;7;7;
45871;PMS5003;32333;55.844;-3.210;2023-02-14T04:54:29;18;18;
45871;PMS5003;32333;55.844;-3.210;2023-02-14T04:56:56;12;9;
45871;PMS5003;32333;55.844;-3.210;2023-02-14T04:59:24;22;22;
45871;PMS5003;32333;55.844;-3.210;2023-02-14T05:01:52;81;81;
45871;PMS5003;32333;55.844;-3.210;2023-02-14T05:04:20;30;30;
45871;PMS5003;32333;55.844;-3.210;2023-02-14T05:06:47;60;60;
45871;PMS5003;32333;55.844;-3.210;2023-02-14T05:09:15;81;81;
45871;PMS5003;32333;55.844;-3.210;2023-02-14T05:11:42;67;67;
45871;PMS5003;32333;55.844;-3.210;2023-02-14T05:14:34;22;22;
45871;PMS5003;32333;55.844;-3.210;2023-02-14T05:17:01;49;49;
45871;PMS5003;32333;55.844;-3.210;2023-02-14T05:19:29;70;70;
45871;PMS5003;32333;55.844;-3.210;2023-02-14T05:21:57;13;13;
45871;PMS5003;32333;55.844;-3.210;2023-02-14T05:24:24;21;21;
45871;PMS5003;32333;55.844;-3.210;2023-02-14T05:26:52;117;117;
45871;PMS5003;32333;55.844;-3.210;2023-02-14T05:29:19;18;18;
45871;PMS5003;32333;55.844;-3.210;2023-02-14T05:31:47;42;42;
45871;PMS5003;32333;55.844;-3.210;2023-02-14T05:34:14;67;67;
45871;PMS5003;32333;55.844;-3.210;2023-02-14T05:36:42;48;48;
45871;PMS5003;32333;55.844;-3.210;2023-02-14T05:39:09;73;73;
45871;PMS5003;32333;55.844;-3.210;2023-02-14T05:41:37;51;51;
45871;PMS5003;32333;55.844;-3.210;2023-02-14T05:44:34;39;39;
45871;PMS5003;32333;55.844;-3.210;2023-02-14T05:47:01;55;55;
45871;PMS5003;32333;55.844;-3.210;2023-02-14T05:49:29;69;69;
45871;PMS5003;32333;55.844;-3.210;2023-02-14T05:51:57;30;30;
45871;PMS5003;32333;55.844;-3.210;2023-02-14T05:54:24;45;45;
45871;PMS5003;32333;55.844;-3.210;2023-02-14T05:56:51;27;27;
45871;PMS5003;32333;55.844;-3.210;2023-02-14T05:59:21;46;46;
45871;PMS5003;32333;55.844;-3.210;2023-02-14T06:01:48;55;55;
45871;PMS5003;32333;55.844;-3.210;2023-02-14T06:04:16;37;37;
45871;PMS5003;32333;55.844;-3.210;2023-02-14T06:06:43;39;39;
45871;PMS5003;32333;55.844;-3.210;2023-02-14T06:09:12;54;54;
45871;PMS5003;32333;55.844;-3.210;2023-02-14T06:11:42;55;55;
45871;PMS5003;32333;55.844;-3.210;2023-02-14T06:14:34;31;31;
45871;PMS5003;32333;55.844;-3.210;2023-02-14T06:17:03;48;46;
45871;PMS5003;32333;55.844;-3.210;2023-02-14T06:19:31;25;25;
45871;PMS5003;32333;55.844;-3.210;2023-02-14T06:21:59;43;43;
45871;PMS5003;32333;55.844;-3.210;2023-02-14T06:24:29;58;58;
45871;PMS5003;32333;55.844;-3.210;2023-02-14T06:26:58;61;61;
45871;PMS5003;32333;55.844;-3.210;2023-02-14T06:29:26;46;46;
45871;PMS5003;32333;55.844;-3.210;2023-02-14T06:31:53;39;39;
45871;PMS5003;32333;55.844;-3.210;2023-02-14T06:34:21;61;61;
45871;PMS5003;32333;55.844;-3.210;2023-02-14T06:36:49;25;25;
45871;PMS5003;32333;55.844;-3.210;2023-02-14T06:39:18;33;33;
45871;PMS5003;32333;55.844;-3.210;2023-02-14T06:41:47;45;45;
45871;PMS5003;32333;55.844;-3.210;2023-02-14T06:44:34;45;45;
45871;PMS5003;32333;55.844;-3.210;2023-02-14T06:47:03;22;22;
45871;PMS5003;32333;55.844;-3.210;2023-02-14T06:49:30;51;51;
45871;PMS5003;32333;55.844;-3.210;2023-02-14T06:51:57;81;81;
45871;PMS5003;32333;55.844;-3.210;2023-02-14T06:54:25;19;19;
45871;PMS5003;32333;55.844;-3.210;2023-02-14T06:56:55;33;33;
45871;PMS5003;32333;55.844;-3.210;2023-02-14T06:59:24;70;70;
45871;PMS5003;32333;55.844;-3.210;2023-02-14T07:01:52;28;28;
45871;PMS5003;32333;55.844;-3.210;2023-02-14T07:04:22;30;30;
45871;PMS5003;32333;55.844;-3.210;2023-02-14T07:08:30;42;42;
45871;PMS5003;32333;55.844;-3.210;2023-02-14T07:10:59;54;54;
45871;PMS5003;32333;55.844;-3.210;2023-02-14T07:14:33;22;22;
45871;PMS5003;32333;55.844;-3.210;2023-02-14T07:17:01;54;54;
45871;PMS5003;32333;55.844;-3.210;2023-02-14T07:19:29;51;51;
45871;PMS5003;32333;55.844;-3.210;2023-02-14T07:21:57;33;33;
45871;PMS5003;32333;55.844;-3.210;2023-02-14T07:24:26;46;46;
45871;PMS5003;32333;55.844;-3.210;2023-02-14T07:26:53;52;52;
45871;PMS5003;32333;55.844;-3.210;2023-02-14T07:29:22;64;64;
45871;PMS5003;32333;55.844;-3.210;2023-02-14T07:31:50;60;60;
45871;PMS5003;32333;55.844;-3.210;2023-02-14T07:34:19;114;114;
45871;PMS5003;32333;55.844;-3.210;2023-02-14T07:36:48;25;25;
45871;PMS5003;32333;55.844;-3.210;2023-02-14T07:39:15;81;81;
45871;PMS5003;32333;55.844;-3.210;2023-02-14T07:41:43;136;136;
45871;PMS5003;32333;55.844;-3.210;2023-02-14T07:44:35;70;70;
45871;PMS5003;32333;55.844;-3.210;2023-02-14T07:47:04;64;64;
45871;PMS5003;32333;55.844;-3.210;2023-02-14T07:49:33;106;106;
45871;PMS5003;32333;55.844;-3.210;2023-02-14T07:52:00;70;70;
45871;PMS5003;32333;55.844;-3.210;2023-02-14T07:54:29;25;25;
45871;PMS5003;32333;55.844;-3.210;2023-02-14T07:56:56;81;81;
45871;PMS5003;32333;55.844;-3.210;2023-02-14T07:59:23;55;55;
45871;PMS5003;32333;55.844;-3.210;2023-02-14T08:01:51;34;34;
45871;PMS5003;32333;55.844;-3.210;2023-02-14T08:04:19;31;31;
45871;PMS5003;32333;55.844;-3.210;2023-02-14T08:06:47;24;24;
45871;PMS5003;32333;55.844;-3.210;2023-02-14T08:09:14;102;102;
45871;PMS5003;32333;55.844;-3.210;2023-02-14T08:11:42;64;64;
45871;PMS5003;32333;55.844;-3.210;2023-02-14T08:14:34;27;27;
45871;PMS5003;32333;55.844;-3.210;2023-02-14T08:17:03;10;10;
45871;PMS5003;32333;55.844;-3.210;2023-02-14T08:19:31;34;33;
45871;PMS5003;32333;55.844;-3.210;2023-02-14T08:21:59;22;22;
45871;PMS5003;32333;55.844;-3.210;2023-02-14T08:24:28;3;3;
45871;PMS5003;32333;55.844;-3.210;2023-02-14T08:26:56;12;10;
45871;PMS5003;32333;55.844;-3.210;2023-02-14T08:29:26;9;4;
45871;PMS5003;32333;55.844;-3.210;2023-02-14T08:31:53;30;30;
45871;PMS5003;32333;55.844;-3.210;2023-02-14T08:34:22;37;37;
45871;PMS5003;32333;55.844;-3.210;2023-02-14T08:36:49;0;0;
45871;PMS5003;32333;55.844;-3.210;2023-02-14T08:39:17;0;0;
45871;PMS5003;32333;55.844;-3.210;2023-02-14T08:41:44;0;0;
45871;PMS5003;32333;55.844;-3.210;2023-02-14T08:44:34;0;0;
45871;PMS5003;32333;55.844;-3.210;2023-02-14T08:47:01;0;0;
45871;PMS5003;32333;55.844;-3.210;2023-02-14T08:49:29;0;0;
45871;PMS5003;32333;55.844;-3.210;2023-02-14T08:51:57;0;0;
45871;PMS5003;32333;55.844;-3.210;2023-02-14T08:54:26;0;0;
45871;PMS5003;32333;55.844;-3.210;2023-02-14T08:56:53;3;3;
45871;PMS5003;32333;55.844;-3.210;2023-02-14T08:59:20;0;0;
45871;PMS5003;32333;55.844;-3.210;2023-02-14T09:01:48;0;0;
45871;PMS5003;32333;55.844;-3.210;2023-02-14T09:04:15;0;0;
45871;PMS5003;32333;55.844;-3.210;2023-02-14T09:06:43;1;1;
45871;PMS5003;32333;55.844;-3.210;2023-02-14T09:09:11;1;1;
45871;PMS5003;32333;55.844;-3.210;2023-02-14T09:11:38;0;0;
45871;PMS5003;32333;55.844;-3.210;2023-02-14T09:14:36;0;0;
45871;PMS5003;32333;55.844;-3.210;2023-02-14T09:17:05;4;4;
45871;PMS5003;32333;55.844;-3.210;2023-02-14T09:19:35;1;1;
45871;PMS5003;32333;55.844;-3.210;2023-02-14T09:22:03;1;1;
45871;PMS5003;32333;55.844;-3.210;2023-02-14T09:24:34;3;3;
45871;PMS5003;32333;55.844;-3.210;2023-02-14T09:27:04;0;0;
45871;PMS5003;32333;55.844;-3.210;2023-02-14T09:29:32;0;0;
45871;PMS5003;32333;55.844;-3.210;2023-02-14T09:32:00;3;3;
45871;PMS5003;32333;55.844;-3.210;2023-02-14T09:34:29;10;10;
45871;PMS5003;32333;55.844;-3.210;2023-02-14T09:36:59;3;1;
45871;PMS5003;32333;55.844;-3.210;2023-02-14T09:39:41;3;3;
45871;PMS5003;32333;55.844;-3.210;2023-02-14T09:44:35;1;1;
45871;PMS5003;32333;55.844;-3.210;2023-02-14T09:47:10;0;0;
45871;PMS5003;32333;55.844;-3.210;2023-02-14T09:49:46;0;0;
45871;PMS5003;32333;55.844;-3.210;2023-02-14T09:52:15;0;0;
45871;PMS5003;32333;55.844;-3.210;2023-02-14T09:54:46;1;1;
45871;PMS5003;32333;55.844;-3.210;2023-02-14T09:57:22;0;0;
45871;PMS5003;32333;55.844;-3.210;2023-02-14T10:00:00;1;1;
45871;PMS5003;32333;55.844;-3.210;2023-02-14T10:02:38;0;0;
45871;PMS5003;32333;55.844;-3.210;2023-02-14T10:05:15;1;1;
45871;PMS5003;32333;55.844;-3.210;2023-02-14T10:07:52;1;1;
45871;PMS5003;32333;55.844;-3.210;2023-02-14T10:10:25;1;1;
45871;PMS5003;32333;55.844;-3.210;2023-02-14T10:14:35;0;0;
45871;PMS5003;32333;55.844;-3.210;2023-02-14T10:17:04;0;0;
45871;PMS5003;32333;55.844;-3.210;2023-02-14T10:19:36;0;0;
45871;PMS5003;32333;55.844;-3.210;2023-02-14T10:22:09;0;0;
45871;PMS5003;32333;55.844;-3.210;2023-02-14T10:24:42;3;3;
45871;PMS5003;32333;55.844;-3.210;2023-02-14T10:27:17;0;0;
45871;PMS5003;32333;55.844;-3.210;2023-02-14T10:29:58;0;0;
45871;PMS5003;32333;55.844;-3.210;2023-02-14T10:32:26;0;0;
45871;PMS5003;32333;55.844;-3.210;2023-02-14T10:35:03;7;6;
45871;PMS5003;32333;55.844;-3.210;2023-02-14T10:37:48;0;0;
45871;PMS5003;32333;55.844;-3.210;2023-02-14T10:40:45;4;4;
45871;PMS5003;32333;55.844;-3.210;2023-02-14T10:44:39;3;3;
45871;PMS5003;32333;55.844;-3.210;2023-02-14T10:47:15;0;0;
45871;PMS5003;32333;55.844;-3.210;2023-02-14T10:49:55;6;3;
45871;PMS5003;32333;55.844;-3.210;2023-02-14T10:52:28;0;0;
45871;PMS5003;32333;55.844;-3.210;2023-02-14T10:55:07;1;1;
45871;PMS5003;32333;55.844;-3.210;2023-02-14T10:57:41;4;3;
45871;PMS5003;32333;55.844;-3.210;2023-02-14T11:00:18;4;3;
45871;PMS5003;32333;55.844;-3.210;2023-02-14T11:02:51;3;3;
45871;PMS5003;32333;55.844;-3.210;2023-02-14T11:05:25;0;0;
45871;PMS5003;32333;55.844;-3.210;2023-02-14T11:07:59;4;4;
45871;PMS5003;32333;55.844;-3.210;2023-02-14T11:10:28;1;1;
45871;PMS5003;32333;55.844;-3.210;2023-02-14T11:14:36;0;0;
45871;PMS5003;32333;55.844;-3.210;2023-02-14T11:17:25;0;0;
45871;PMS5003;32333;55.844;-3.210;2023-02-14T11:19:56;6;4;
45871;PMS5003;32333;55.844;-3.210;2023-02-14T11:22:28;3;3;
45871;PMS5003;32333;55.844;-3.210;2023-02-14T11:25:01;1;1;
45871;PMS5003;32333;55.844;-3.210;2023-02-14T11:27:31;3;3;
45871;PMS5003;32333;55.844;-3.210;2023-02-14T11:29:59;1;1;
45871;PMS5003;32333;55.844;-3.210;2023-02-14T11:32:28;4;3;
45871;PMS5003;32333;55.844;-3.210;2023-02-14T11:34:58;3;3;
45871;PMS5003;32333;55.844;-3.210;2023-02-14T11:37:29;1;1;
45871;PMS5003;32333;55.844;-3.210;2023-02-14T11:40:02;1;1;
45871;PMS5003;32333;55.844;-3.210;2023-02-14T11:44:35;3;3;
45871;PMS5003;32333;55.844;-3.210;2023-02-14T11:47:36;3;3;
45871;PMS5003;32333;55.844;-3.210;2023-02-14T11:50:05;3;1;
45871;PMS5003;32333;55.844;-3.210;2023-02-14T11:52:48;6;6;
45871;PMS5003;32333;55.844;-3.210;2023-02-14T11:55:21;1;1;
45871;PMS5003;32333;55.844;-3.210;2023-02-14T11:57:53;9;9;
45871;PMS5003;32333;55.844;-3.210;2023-02-14T12:00:23;6;4;
45871;PMS5003;32333;55.844;-3.210;2023-02-14T12:02:51;6;6;
45871;PMS5003;32333;55.844;-3.210;2023-02-14T12:05:22;3;1;
45871;PMS5003;32333;55.844;-3.210;2023-02-14T12:07:53;4;4;
45871;PMS5003;32333;55.844;-3.210;2023-02-14T12:10:25;7;6;
45871;PMS5003;32333;55.844;-3.210;2023-02-14T12:14:35;4;3;
45871;PMS5003;32333;55.844;-3.210;2023-02-14T12:17:03;7;6;
45871;PMS5003;32333;55.844;-3.210;2023-02-14T12:19:44;1;1;
45871;PMS5003;32333;55.844;-3.210;2023-02-14T12:22:18;10;9;
45871;PMS5003;32333;55.844;-3.210;2023-02-14T12:24:48;1;1;
45871;PMS5003;32333;55.844;-3.210;2023-02-14T12:27:25;4;4;
45871;PMS5003;32333;55.844;-3.210;2023-02-14T12:29:58;7;6;
45871;PMS5003;32333;55.844;-3.210;2023-02-14T12:32:30;4;3;
45871;PMS5003;32333;55.844;-3.210;2023-02-14T12:35:00;1;1;
45871;PMS5003;32333;55.844;-3.210;2023-02-14T12:37:40;4;4;
45871;PMS5003;32333;55.844;-3.210;2023-02-14T12:40:21;3;3;
45871;PMS5003;32333;55.844;-3.210;2023-02-14T12:44:37;1;1;
45871;PMS5003;32333;55.844;-3.210;2023-02-14T12:47:18;3;3;
45871;PMS5003;32333;55.844;-3.210;2023-02-14T12:50:33;0;0;
45871;PMS5003;32333;55.844;-3.210;2023-02-14T13:14:39;3;3;
45871;PMS5003;32333;55.844;-3.210;2023-02-14T13:17:17;1;1;
45871;PMS5003;32333;55.844;-3.210;2023-02-14T13:19:55;4;3;
45871;PMS5003;32333;55.844;-3.210;2023-02-14T13:22:31;3;3;
45871;PMS5003;32333;55.844;-3.210;2023-02-14T13:25:03;4;3;
45871;PMS5003;32333;55.844;-3.210;2023-02-14T13:27:38;4;4;
45871;PMS5003;32333;55.844;-3.210;2023-02-14T13:30:10;10;10;
45871;PMS5003;32333;55.844;-3.210;2023-02-14T13:32:46;4;4;
45871;PMS5003;32333;55.844;-3.210;2023-02-14T13:35:35;0;0;
45871;PMS5003;32333;55.844;-3.210;2023-02-14T13:38:05;4;4;
45871;PMS5003;32333;55.844;-3.210;2023-02-14T13:40:34;4;4;
45871;PMS5003;32333;55.844;-3.210;2023-02-14T13:44:41;6;6;
45871;PMS5003;32333;55.844;-3.210;2023-02-14T13:47:15;6;4;
45871;PMS5003;32333;55.844;-3.210;2023-02-14T13:49:46;4;4;
45871;PMS5003;32333;55.844;-3.210;2023-02-14T13:52:48;4;4;
45871;PMS5003;32333;55.844;-3.210;2023-02-14T13:55:17;0;0;
45871;PMS5003;32333;55.844;-3.210;2023-02-14T13:57:58;3;3;
45871;PMS5003;32333;55.844;-3.210;2023-02-14T14:00:37;0;0;
45871;PMS5003;32333;55.844;-3.210;2023-02-14T14:03:09;1;1;
45871;PMS5003;32333;55.844;-3.210;2023-02-14T14:05:56;3;3;
45871;PMS5003;32333;55.844;-3.210;2023-02-14T14:08:44;0;0;
45871;PMS5003;32333;55.844;-3.210;2023-02-14T14:11:48;1;1;
45871;PMS5003;32333;55.844;-3.210;2023-02-14T14:14:35;0;0;
45871;PMS5003;32333;55.844;-3.210;2023-02-14T14:17:16;6;3;
45871;PMS5003;32333;55.844;-3.210;2023-02-14T14:19:46;4;3;
45871;PMS5003;32333;55.844;-3.210;2023-02-14T14:22:14;3;1;
45871;PMS5003;32333;55.844;-3.210;2023-02-14T14:24:50;3;1;
45871;PMS5003;32333;55.844;-3.210;2023-02-14T14:27:21;0;0;
45871;PMS5003;32333;55.844;-3.210;2023-02-14T14:29:52;3;3;
45871;PMS5003;32333;55.844;-3.210;2023-02-14T14:32:26;6;6;
45871;PMS5003;32333;55.844;-3.210;2023-02-14T14:34:57;0;0;
45871;PMS5003;32333;55.844;-3.210;2023-02-14T14:37:27;3;1;
45871;PMS5003;32333;55.844;-3.210;2023-02-14T14:39:57;1;1;
45871;PMS5003;32333;55.844;-3.210;2023-02-14T14:44:35;1;1;
45871;PMS5003;32333;55.844;-3.210;2023-02-14T14:47:14;1;1;
45871;PMS5003;32333;55.844;-3.210;2023-02-14T14:49:45;3;3;
45871;PMS5003;32333;55.844;-3.210;2023-02-14T14:52:25;9;9;
45871;PMS5003;32333;55.844;-3.210;2023-02-14T14:54:57;1;1;
45871;PMS5003;32333;55.844;-3.210;2023-02-14T14:57:28;6;4;
45871;PMS5003;32333;55.844;-3.210;2023-02-14T15:00:16;3;1;
45871;PMS5003;32333;55.844;-3.210;2023-02-14T15:03:04;4;4;
45871;PMS5003;32333;55.844;-3.210;2023-02-14T15:05:35;4;4;
45871;PMS5003;32333;55.844;-3.210;2023-02-14T15:08:19;1;1;
45871;PMS5003;32333;55.844;-3.210;2023-02-14T15:10:49;3;3;
45871;PMS5003;32333;55.844;-3.210;2023-02-14T15:14:36;4;4;
45871;PMS5003;32333;55.844;-3.210;2023-02-14T15:17:11;6;4;
45871;PMS5003;32333;55.844;-3.210;2023-02-14T15:19:44;3;3;
45871;PMS5003;32333;55.844;-3.210;2023-02-14T15:22:17;0;0;
45871;PMS5003;32333;55.844;-3.210;2023-02-14T15:24:47;1;1;
45871;PMS5003;32333;55.844;-3.210;2023-02-14T15:27:15;3;3;
45871;PMS5003;32333;55.844;-3.210;2023-02-14T15:29:53;4;4;
45871;PMS5003;32333;55.844;-3.210;2023-02-14T15:32:23;4;4;
45871;PMS5003;32333;55.844;-3.210;2023-02-14T15:34:53;4;3;
45871;PMS5003;32333;55.844;-3.210;2023-02-14T15:37:21;1;1;
45871;PMS5003;32333;55.844;-3.210;2023-02-14T15:39:52;3;3;
45871;PMS5003;32333;55.844;-3.210;2023-02-14T15:44:36;1;1;
45871;PMS5003;32333;55.844;-3.210;2023-02-14T15:47:03;3;3;
45871;PMS5003;32333;55.844;-3.210;2023-02-14T15:49:32;3;3;
45871;PMS5003;32333;55.844;-3.210;2023-02-14T15:52:03;6;6;
45871;PMS5003;32333;55.844;-3.210;2023-02-14T15:54:34;1;1;
45871;PMS5003;32333;55.844;-3.210;2023-02-14T15:57:04;1;0;
45871;PMS5003;32333;55.844;-3.210;2023-02-14T15:59:43;1;1;
45871;PMS5003;32333;55.844;-3.210;2023-02-14T16:02:15;3;3;
45871;PMS5003;32333;55.844;-3.210;2023-02-14T16:04:53;1;1;
45871;PMS5003;32333;55.844;-3.210;2023-02-14T16:07:28;3;1;
45871;PMS5003;32333;55.844;-3.210;2023-02-14T16:10:12;1;1;
45871;PMS5003;32333;55.844;-3.210;2023-02-14T16:14:35;1;1;
45871;PMS5003;32333;55.844;-3.210;2023-02-14T16:17:04;4;4;
45871;PMS5003;32333;55.844;-3.210;2023-02-14T16:19:37;1;1;
45871;PMS5003;32333;55.844;-3.210;2023-02-14T16:22:08;0;0;
45871;PMS5003;32333;55.844;-3.210;2023-02-14T16:24:36;0;0;
45871;PMS5003;32333;55.844;-3.210;2023-02-14T16:27:05;0;0;
45871;PMS5003;32333;55.844;-3.210;2023-02-14T16:29:34;3;3;
45871;PMS5003;32333;55.844;-3.210;2023-02-14T16:32:10;1;1;
45871;PMS5003;32333;55.844;-3.210;2023-02-14T16:34:42;1;1;
45871;PMS5003;32333;55.844;-3.210;2023-02-14T16:37:17;3;3;
45871;PMS5003;32333;55.844;-3.210;2023-02-14T16:39:47;4;4;
45871;PMS5003;32333;55.844;-3.210;2023-02-14T16:44:35;1;1;
45871;PMS5003;32333;55.844;-3.210;2023-02-14T16:47:04;4;4;
45871;PMS5003;32333;55.844;-3.210;2023-02-14T16:49:36;3;3;
45871;PMS5003;32333;55.844;-3.210;2023-02-14T16:52:03;0;0;
45871;PMS5003;32333;55.844;-3.210;2023-02-14T16:54:32;1;1;
45871;PMS5003;32333;55.844;-3.210;2023-02-14T16:57:00;6;3;
45871;PMS5003;32333;55.844;-3.210;2023-02-14T16:59:29;0;0;
45871;PMS5003;32333;55.844;-3.210;2023-02-14T17:01:57;0;0;
45871;PMS5003;32333;55.844;-3.210;2023-02-14T17:04:26;1;1;
45871;PMS5003;32333;55.844;-3.210;2023-02-14T17:06:54;0;0;
45871;PMS5003;32333;55.844;-3.210;2023-02-14T17:09:24;0;0;
45871;PMS5003;32333;55.844;-3.210;2023-02-14T17:11:56;3;3;
45871;PMS5003;32333;55.844;-3.210;2023-02-14T17:14:35;3;3;
45871;PMS5003;32333;55.844;-3.210;2023-02-14T17:17:06;0;0;
45871;PMS5003;32333;55.844;-3.210;2023-02-14T17:19:35;1;1;
45871;PMS5003;32333;55.844;-3.210;2023-02-14T17:22:03;1;0;
45871;PMS5003;32333;55.844;-3.210;2023-02-14T17:24:32;6;1;
45871;PMS5003;32333;55.844;-3.210;2023-02-14T17:27:00;0;0;
45871;PMS5003;32333;55.844;-3.210;2023-02-14T17:29:28;1;1;
45871;PMS5003;32333;55.844;-3.210;2023-02-14T17:31:55;0;0;
45871;PMS5003;32333;55.844;-3.210;2023-02-14T17:34:23;4;4;
45871;PMS5003;32333;55.844;-3.210;2023-02-14T17:36:51;0;0;
45871;PMS5003;32333;55.844;-3.210;2023-02-14T17:39:18;1;1;
45871;PMS5003;32333;55.844;-3.210;2023-02-14T17:41:46;3;1;
45871;PMS5003;32333;55.844;-3.210;2023-02-14T17:44:35;0;0;
45871;PMS5003;32333;55.844;-3.210;2023-02-14T17:47:04;0;0;
45871;PMS5003;32333;55.844;-3.210;2023-02-14T17:49:31;1;1;
45871;PMS5003;32333;55.844;-3.210;2023-02-14T17:52:01;1;1;
45871;PMS5003;32333;55.844;-3.210;2023-02-14T17:54:29;0;0;
45871;PMS5003;32333;55.844;-3.210;2023-02-14T17:56:56;1;1;